Terminal Aerodrome Forecast
Issued by NWS Jackson, MS

Home | Current Version | Previous Version | Text Only | Print | Product List | Glossary On
Versions: 1 2 3 4 5 6 7 8 9 10 11 12 13 14 15 16 17
000
FTUS44 KJAN 051120
TAFHBG
TAF
KHBG 051120Z 0512/0612 VRB05KT 6SM -SHRA VCTS SCT015 BKN030CB
      OVC100
     FM051400 25004KT 5SM -TSRA SCT020 BKN040CB OVC120
     FM051900 23006KT P6SM VCTS SCT030 BKN050CB BKN150
     FM060000 20003KT P6SM FEW030 SCT050 BKN150
     FM061000 19003KT 5SM BR FEW009 BKN020=

USA.gov is the U.S. government's official web portal to all federal, state and local government web resources and services.